sensor_id;sensor_type;location;lat;lon;timestamp;P1;durP1;ratioP1;P2;durP2;ratioP2
42616;SDS011;28250;52.320;0.360;2024-01-30T00:01:01;22.25;;;11.82;;
42616;SDS011;28250;52.320;0.360;2024-01-30T00:03:30;26.17;;;12.10;;
42616;SDS011;28250;52.320;0.360;2024-01-30T00:05:56;23.08;;;11.75;;
42616;SDS011;28250;52.320;0.360;2024-01-30T00:08:22;21.67;;;10.95;;
42616;SDS011;28250;52.320;0.360;2024-01-30T00:10:48;27.17;;;11.85;;
42616;SDS011;28250;52.320;0.360;2024-01-30T00:13:14;23.08;;;11.48;;
42616;SDS011;28250;52.320;0.360;2024-01-30T00:15:42;24.60;;;12.15;;
42616;SDS011;28250;52.320;0.360;2024-01-30T00:18:08;22.23;;;11.82;;
42616;SDS011;28250;52.320;0.360;2024-01-30T00:20:34;25.65;;;12.40;;
42616;SDS011;28250;52.320;0.360;2024-01-30T00:23:00;20.85;;;11.10;;
42616;SDS011;28250;52.320;0.360;2024-01-30T00:25:27;22.90;;;11.80;;
42616;SDS011;28250;52.320;0.360;2024-01-30T00:27:53;24.40;;;11.80;;
42616;SDS011;28250;52.320;0.360;2024-01-30T00:30:20;24.63;;;11.82;;
42616;SDS011;28250;52.320;0.360;2024-01-30T00:35:12;25.27;;;11.13;;
42616;SDS011;28250;52.320;0.360;2024-01-30T00:37:38;22.05;;;10.95;;
42616;SDS011;28250;52.320;0.360;2024-01-30T00:40:04;25.75;;;12.27;;
42616;SDS011;28250;52.320;0.360;2024-01-30T00:42:31;23.55;;;11.07;;
42616;SDS011;28250;52.320;0.360;2024-01-30T00:44:57;27.55;;;10.98;;
42616;SDS011;28250;52.320;0.360;2024-01-30T00:47:24;28.83;;;10.90;;
42616;SDS011;28250;52.320;0.360;2024-01-30T00:49:50;23.20;;;12.00;;
42616;SDS011;28250;52.320;0.360;2024-01-30T00:52:16;24.38;;;10.80;;
42616;SDS011;28250;52.320;0.360;2024-01-30T00:54:42;21.38;;;10.60;;
42616;SDS011;28250;52.320;0.360;2024-01-30T00:57:08;22.80;;;10.80;;
42616;SDS011;28250;52.320;0.360;2024-01-30T00:59:34;23.63;;;10.95;;
42616;SDS011;28250;52.320;0.360;2024-01-30T01:02:01;20.52;;;10.55;;
42616;SDS011;28250;52.320;0.360;2024-01-30T01:04:27;21.63;;;10.57;;
42616;SDS011;28250;52.320;0.360;2024-01-30T01:06:53;23.67;;;11.80;;
42616;SDS011;28250;52.320;0.360;2024-01-30T01:09:19;25.23;;;10.73;;
42616;SDS011;28250;52.320;0.360;2024-01-30T01:11:45;18.08;;;10.48;;
42616;SDS011;28250;52.320;0.360;2024-01-30T01:14:11;25.20;;;10.45;;
42616;SDS011;28250;52.320;0.360;2024-01-30T01:16:38;24.20;;;10.32;;
42616;SDS011;28250;52.320;0.360;2024-01-30T01:19:10;21.75;;;9.88;;
42616;SDS011;28250;52.320;0.360;2024-01-30T01:21:36;23.52;;;9.55;;
42616;SDS011;28250;52.320;0.360;2024-01-30T01:24:03;26.30;;;10.48;;
42616;SDS011;28250;52.320;0.360;2024-01-30T01:26:29;30.48;;;11.25;;
42616;SDS011;28250;52.320;0.360;2024-01-30T01:28:55;23.25;;;10.00;;
42616;SDS011;28250;52.320;0.360;2024-01-30T01:31:21;23.05;;;9.88;;
42616;SDS011;28250;52.320;0.360;2024-01-30T01:33:50;22.73;;;8.77;;
42616;SDS011;28250;52.320;0.360;2024-01-30T01:36:16;20.63;;;8.82;;
42616;SDS011;28250;52.320;0.360;2024-01-30T01:38:42;24.88;;;10.07;;
42616;SDS011;28250;52.320;0.360;2024-01-30T01:41:08;20.73;;;10.30;;
42616;SDS011;28250;52.320;0.360;2024-01-30T01:43:34;25.67;;;9.68;;
42616;SDS011;28250;52.320;0.360;2024-01-30T01:46:00;20.20;;;9.38;;
42616;SDS011;28250;52.320;0.360;2024-01-30T01:48:26;21.20;;;8.88;;
42616;SDS011;28250;52.320;0.360;2024-01-30T01:50:52;17.27;;;8.75;;
42616;SDS011;28250;52.320;0.360;2024-01-30T01:53:18;15.80;;;8.35;;
42616;SDS011;28250;52.320;0.360;2024-01-30T01:55:45;16.02;;;8.00;;
42616;SDS011;28250;52.320;0.360;2024-01-30T01:58:11;22.83;;;8.80;;
42616;SDS011;28250;52.320;0.360;2024-01-30T02:00:38;22.85;;;8.48;;
42616;SDS011;28250;52.320;0.360;2024-01-30T02:03:08;13.77;;;7.68;;
42616;SDS011;28250;52.320;0.360;2024-01-30T02:05:39;20.00;;;8.13;;
42616;SDS011;28250;52.320;0.360;2024-01-30T02:08:07;20.08;;;9.40;;
42616;SDS011;28250;52.320;0.360;2024-01-30T02:10:34;24.90;;;7.90;;
42616;SDS011;28250;52.320;0.360;2024-01-30T02:13:00;15.43;;;7.40;;
42616;SDS011;28250;52.320;0.360;2024-01-30T02:15:26;19.90;;;8.00;;
42616;SDS011;28250;52.320;0.360;2024-01-30T02:17:52;16.25;;;7.93;;
42616;SDS011;28250;52.320;0.360;2024-01-30T02:20:18;15.70;;;7.78;;
42616;SDS011;28250;52.320;0.360;2024-01-30T02:22:44;15.05;;;7.28;;
42616;SDS011;28250;52.320;0.360;2024-01-30T02:25:11;15.17;;;7.17;;
42616;SDS011;28250;52.320;0.360;2024-01-30T02:27:37;20.58;;;7.45;;
42616;SDS011;28250;52.320;0.360;2024-01-30T02:30:03;15.07;;;7.15;;
42616;SDS011;28250;52.320;0.360;2024-01-30T02:32:30;19.65;;;7.32;;
42616;SDS011;28250;52.320;0.360;2024-01-30T02:34:56;20.00;;;7.63;;
42616;SDS011;28250;52.320;0.360;2024-01-30T02:37:22;14.85;;;6.05;;
42616;SDS011;28250;52.320;0.360;2024-01-30T02:39:48;11.27;;;5.38;;
42616;SDS011;28250;52.320;0.360;2024-01-30T02:42:14;10.25;;;4.75;;
42616;SDS011;28250;52.320;0.360;2024-01-30T02:44:40;11.35;;;4.53;;
42616;SDS011;28250;52.320;0.360;2024-01-30T02:47:06;12.70;;;4.60;;
42616;SDS011;28250;52.320;0.360;2024-01-30T02:49:33;13.52;;;4.10;;
42616;SDS011;28250;52.320;0.360;2024-01-30T02:52:02;5.38;;;2.83;;
42616;SDS011;28250;52.320;0.360;2024-01-30T02:54:29;5.53;;;1.85;;
42616;SDS011;28250;52.320;0.360;2024-01-30T02:56:55;3.65;;;1.52;;
42616;SDS011;28250;52.320;0.360;2024-01-30T02:59:22;7.88;;;1.52;;
42616;SDS011;28250;52.320;0.360;2024-01-30T03:01:48;3.95;;;1.13;;
42616;SDS011;28250;52.320;0.360;2024-01-30T03:04:14;4.28;;;1.30;;
42616;SDS011;28250;52.320;0.360;2024-01-30T03:06:44;3.53;;;1.88;;
42616;SDS011;28250;52.320;0.360;2024-01-30T03:09:12;4.82;;;0.98;;
42616;SDS011;28250;52.320;0.360;2024-01-30T03:11:38;7.60;;;1.27;;
42616;SDS011;28250;52.320;0.360;2024-01-30T03:14:04;3.95;;;1.20;;
42616;SDS011;28250;52.320;0.360;2024-01-30T03:16:30;4.13;;;1.02;;
42616;SDS011;28250;52.320;0.360;2024-01-30T03:18:56;2.42;;;0.88;;
42616;SDS011;28250;52.320;0.360;2024-01-30T03:21:22;6.18;;;1.10;;
42616;SDS011;28250;52.320;0.360;2024-01-30T03:23:48;2.05;;;1.20;;
42616;SDS011;28250;52.320;0.360;2024-01-30T03:26:15;5.93;;;1.45;;
42616;SDS011;28250;52.320;0.360;2024-01-30T03:28:41;5.13;;;1.20;;
42616;SDS011;28250;52.320;0.360;2024-01-30T03:31:07;3.80;;;0.90;;
42616;SDS011;28250;52.320;0.360;2024-01-30T03:33:33;5.18;;;0.90;;
42616;SDS011;28250;52.320;0.360;2024-01-30T03:36:02;4.03;;;1.25;;
42616;SDS011;28250;52.320;0.360;2024-01-30T03:38:30;3.25;;;0.93;;
42616;SDS011;28250;52.320;0.360;2024-01-30T03:40:58;1.73;;;0.68;;
42616;SDS011;28250;52.320;0.360;2024-01-30T03:43:25;4.07;;;1.13;;
42616;SDS011;28250;52.320;0.360;2024-01-30T03:45:51;2.55;;;0.52;;
42616;SDS011;28250;52.320;0.360;2024-01-30T03:48:18;1.98;;;0.65;;
42616;SDS011;28250;52.320;0.360;2024-01-30T03:50:46;7.90;;;0.90;;
42616;SDS011;28250;52.320;0.360;2024-01-30T03:53:12;1.92;;;0.68;;
42616;SDS011;28250;52.320;0.360;2024-01-30T03:55:38;2.78;;;0.63;;
42616;SDS011;28250;52.320;0.360;2024-01-30T03:58:04;5.68;;;0.82;;
42616;SDS011;28250;52.320;0.360;2024-01-30T04:00:30;3.67;;;0.60;;
42616;SDS011;28250;52.320;0.360;2024-01-30T04:02:56;2.60;;;0.40;;
42616;SDS011;28250;52.320;0.360;2024-01-30T04:05:22;2.40;;;0.60;;
42616;SDS011;28250;52.320;0.360;2024-01-30T04:07:48;1.75;;;0.43;;
42616;SDS011;28250;52.320;0.360;2024-01-30T04:10:14;0.50;;;0.20;;
42616;SDS011;28250;52.320;0.360;2024-01-30T04:12:40;2.08;;;0.30;;
42616;SDS011;28250;52.320;0.360;2024-01-30T04:15:06;0.70;;;0.20;;
42616;SDS011;28250;52.320;0.360;2024-01-30T04:17:33;2.67;;;0.27;;
42616;SDS011;28250;52.320;0.360;2024-01-30T04:19:59;2.75;;;0.28;;
42616;SDS011;28250;52.320;0.360;2024-01-30T04:22:25;0.98;;;0.20;;
42616;SDS011;28250;52.320;0.360;2024-01-30T04:24:51;3.63;;;0.38;;
42616;SDS011;28250;52.320;0.360;2024-01-30T04:27:17;0.88;;;0.35;;
42616;SDS011;28250;52.320;0.360;2024-01-30T04:29:43;0.17;;;0.10;;
42616;SDS011;28250;52.320;0.360;2024-01-30T04:32:09;2.75;;;0.20;;
42616;SDS011;28250;52.320;0.360;2024-01-30T04:34:36;1.63;;;0.20;;
42616;SDS011;28250;52.320;0.360;2024-01-30T04:37:02;1.08;;;0.30;;
42616;SDS011;28250;52.320;0.360;2024-01-30T04:39:28;2.47;;;0.22;;
42616;SDS011;28250;52.320;0.360;2024-01-30T04:41:54;2.30;;;0.82;;
42616;SDS011;28250;52.320;0.360;2024-01-30T04:44:20;3.45;;;0.20;;
42616;SDS011;28250;52.320;0.360;2024-01-30T04:46:46;1.65;;;0.20;;
42616;SDS011;28250;52.320;0.360;2024-01-30T04:49:13;0.38;;;0.10;;
42616;SDS011;28250;52.320;0.360;2024-01-30T04:51:39;1.98;;;0.20;;
42616;SDS011;28250;52.320;0.360;2024-01-30T04:54:05;0.68;;;0.40;;
42616;SDS011;28250;52.320;0.360;2024-01-30T04:56:31;1.48;;;0.30;;
42616;SDS011;28250;52.320;0.360;2024-01-30T04:58:57;0.77;;;0.30;;
42616;SDS011;28250;52.320;0.360;2024-01-30T05:01:23;3.45;;;0.50;;
42616;SDS011;28250;52.320;0.360;2024-01-30T05:03:49;1.40;;;0.50;;
42616;SDS011;28250;52.320;0.360;2024-01-30T05:06:23;0.52;;;0.20;;
42616;SDS011;28250;52.320;0.360;2024-01-30T05:08:51;1.85;;;0.20;;
42616;SDS011;28250;52.320;0.360;2024-01-30T05:11:17;1.70;;;0.40;;
42616;SDS011;28250;52.320;0.360;2024-01-30T05:13:43;0.80;;;0.30;;
42616;SDS011;28250;52.320;0.360;2024-01-30T05:16:09;0.82;;;0.50;;
42616;SDS011;28250;52.320;0.360;2024-01-30T05:18:35;0.57;;;0.28;;
42616;SDS011;28250;52.320;0.360;2024-01-30T05:21:01;1.90;;;0.30;;
42616;SDS011;28250;52.320;0.360;2024-01-30T05:25:54;2.08;;;0.40;;
42616;SDS011;28250;52.320;0.360;2024-01-30T05:28:20;0.30;;;0.20;;
42616;SDS011;28250;52.320;0.360;2024-01-30T05:30:46;1.98;;;0.32;;
42616;SDS011;28250;52.320;0.360;2024-01-30T05:33:13;0.73;;;0.40;;
42616;SDS011;28250;52.320;0.360;2024-01-30T05:35:39;0.60;;;0.60;;
42616;SDS011;28250;52.320;0.360;2024-01-30T05:38:05;2.00;;;0.20;;
42616;SDS011;28250;52.320;0.360;2024-01-30T05:40:31;0.63;;;0.10;;
42616;SDS011;28250;52.320;0.360;2024-01-30T05:42:57;0.75;;;0.28;;
42616;SDS011;28250;52.320;0.360;2024-01-30T05:45:28;0.40;;;0.20;;
42616;SDS011;28250;52.320;0.360;2024-01-30T05:47:54;2.25;;;0.50;;
42616;SDS011;28250;52.320;0.360;2024-01-30T05:50:20;4.45;;;0.40;;
42616;SDS011;28250;52.320;0.360;2024-01-30T05:52:48;1.98;;;0.40;;
42616;SDS011;28250;52.320;0.360;2024-01-30T05:55:14;1.45;;;0.57;;
42616;SDS011;28250;52.320;0.360;2024-01-30T05:57:40;1.38;;;0.40;;
42616;SDS011;28250;52.320;0.360;2024-01-30T06:00:07;1.38;;;0.52;;
42616;SDS011;28250;52.320;0.360;2024-01-30T06:02:34;0.93;;;0.40;;
42616;SDS011;28250;52.320;0.360;2024-01-30T06:05:00;2.25;;;0.50;;
42616;SDS011;28250;52.320;0.360;2024-01-30T06:07:26;1.17;;;0.30;;
42616;SDS011;28250;52.320;0.360;2024-01-30T06:09:52;0.63;;;0.40;;
42616;SDS011;28250;52.320;0.360;2024-01-30T06:12:18;0.68;;;0.50;;
42616;SDS011;28250;52.320;0.360;2024-01-30T06:14:44;0.60;;;0.40;;
42616;SDS011;28250;52.320;0.360;2024-01-30T06:17:11;1.83;;;0.60;;
42616;SDS011;28250;52.320;0.360;2024-01-30T06:19:37;0.73;;;0.50;;
42616;SDS011;28250;52.320;0.360;2024-01-30T06:22:04;1.80;;;0.43;;
42616;SDS011;28250;52.320;0.360;2024-01-30T06:24:30;1.05;;;0.75;;
42616;SDS011;28250;52.320;0.360;2024-01-30T06:26:56;1.02;;;0.50;;
42616;SDS011;28250;52.320;0.360;2024-01-30T06:29:22;1.42;;;0.88;;
42616;SDS011;28250;52.320;0.360;2024-01-30T06:31:52;4.88;;;0.70;;
42616;SDS011;28250;52.320;0.360;2024-01-30T06:34:18;1.25;;;0.45;;
42616;SDS011;28250;52.320;0.360;2024-01-30T06:36:44;1.17;;;0.57;;
42616;SDS011;28250;52.320;0.360;2024-01-30T06:39:10;0.40;;;0.40;;
42616;SDS011;28250;52.320;0.360;2024-01-30T06:41:36;1.52;;;0.40;;
42616;SDS011;28250;52.320;0.360;2024-01-30T06:44:02;0.47;;;0.43;;
42616;SDS011;28250;52.320;0.360;2024-01-30T06:46:33;0.75;;;0.60;;
42616;SDS011;28250;52.320;0.360;2024-01-30T06:49:00;1.80;;;0.70;;
42616;SDS011;28250;52.320;0.360;2024-01-30T06:51:26;1.43;;;0.70;;
42616;SDS011;28250;52.320;0.360;2024-01-30T06:53:52;2.05;;;0.80;;
42616;SDS011;28250;52.320;0.360;2024-01-30T06:56:19;1.20;;;0.70;;
42616;SDS011;28250;52.320;0.360;2024-01-30T06:58:49;2.50;;;0.90;;
42616;SDS011;28250;52.320;0.360;2024-01-30T07:01:15;2.90;;;0.80;;
42616;SDS011;28250;52.320;0.360;2024-01-30T07:03:42;2.40;;;0.93;;
42616;SDS011;28250;52.320;0.360;2024-01-30T07:06:09;1.63;;;1.20;;
42616;SDS011;28250;52.320;0.360;2024-01-30T07:08:38;1.63;;;0.98;;
42616;SDS011;28250;52.320;0.360;2024-01-30T07:11:07;2.33;;;1.10;;
42616;SDS011;28250;52.320;0.360;2024-01-30T07:13:34;3.90;;;0.98;;
42616;SDS011;28250;52.320;0.360;2024-01-30T07:16:00;1.60;;;1.20;;
42616;SDS011;28250;52.320;0.360;2024-01-30T07:18:26;1.67;;;1.38;;
42616;SDS011;28250;52.320;0.360;2024-01-30T07:20:52;3.90;;;1.20;;
42616;SDS011;28250;52.320;0.360;2024-01-30T07:23:18;1.70;;;1.40;;
42616;SDS011;28250;52.320;0.360;2024-01-30T07:25:44;1.98;;;1.77;;
42616;SDS011;28250;52.320;0.360;2024-01-30T07:28:10;4.78;;;1.77;;
42616;SDS011;28250;52.320;0.360;2024-01-30T07:30:37;1.80;;;1.45;;
42616;SDS011;28250;52.320;0.360;2024-01-30T07:33:04;2.47;;;1.33;;
42616;SDS011;28250;52.320;0.360;2024-01-30T07:35:30;3.65;;;1.45;;
42616;SDS011;28250;52.320;0.360;2024-01-30T07:37:56;1.63;;;1.40;;
42616;SDS011;28250;52.320;0.360;2024-01-30T07:40:22;2.00;;;1.65;;
42616;SDS011;28250;52.320;0.360;2024-01-30T07:42:49;2.63;;;1.65;;
42616;SDS011;28250;52.320;0.360;2024-01-30T07:45:15;2.22;;;1.90;;
42616;SDS011;28250;52.320;0.360;2024-01-30T07:47:41;2.17;;;1.60;;
42616;SDS011;28250;52.320;0.360;2024-01-30T07:50:08;2.63;;;2.25;;
42616;SDS011;28250;52.320;0.360;2024-01-30T07:52:34;3.35;;;2.50;;
42616;SDS011;28250;52.320;0.360;2024-01-30T07:55:00;2.45;;;2.13;;
42616;SDS011;28250;52.320;0.360;2024-01-30T07:57:29;4.03;;;2.65;;
42616;SDS011;28250;52.320;0.360;2024-01-30T07:59:55;4.30;;;2.50;;
42616;SDS011;28250;52.320;0.360;2024-01-30T08:02:22;3.78;;;2.42;;
42616;SDS011;28250;52.320;0.360;2024-01-30T08:04:48;2.95;;;2.28;;
42616;SDS011;28250;52.320;0.360;2024-01-30T08:07:14;4.50;;;2.78;;
42616;SDS011;28250;52.320;0.360;2024-01-30T08:09:43;4.20;;;2.67;;
42616;SDS011;28250;52.320;0.360;2024-01-30T08:12:09;3.55;;;3.05;;
42616;SDS011;28250;52.320;0.360;2024-01-30T08:14:35;5.25;;;2.85;;
42616;SDS011;28250;52.320;0.360;2024-01-30T08:17:01;3.75;;;2.80;;
42616;SDS011;28250;52.320;0.360;2024-01-30T08:19:27;4.88;;;2.60;;
42616;SDS011;28250;52.320;0.360;2024-01-30T08:21:53;3.92;;;3.00;;
42616;SDS011;28250;52.320;0.360;2024-01-30T08:24:21;3.20;;;2.50;;
42616;SDS011;28250;52.320;0.360;2024-01-30T08:26:47;4.20;;;2.55;;
42616;SDS011;28250;52.320;0.360;2024-01-30T08:29:13;3.78;;;2.40;;
42616;SDS011;28250;52.320;0.360;2024-01-30T08:31:39;2.92;;;2.20;;
42616;SDS011;28250;52.320;0.360;2024-01-30T08:34:05;3.33;;;1.80;;
42616;SDS011;28250;52.320;0.360;2024-01-30T08:36:31;3.15;;;2.03;;
42616;SDS011;28250;52.320;0.360;2024-01-30T08:38:57;2.65;;;2.08;;
42616;SDS011;28250;52.320;0.360;2024-01-30T08:41:23;5.00;;;1.98;;
42616;SDS011;28250;52.320;0.360;2024-01-30T08:43:49;6.22;;;2.40;;
42616;SDS011;28250;52.320;0.360;2024-01-30T08:46:18;4.20;;;2.33;;
42616;SDS011;28250;52.320;0.360;2024-01-30T08:48:45;3.25;;;2.03;;
42616;SDS011;28250;52.320;0.360;2024-01-30T08:53:40;4.65;;;1.77;;
42616;SDS011;28250;52.320;0.360;2024-01-30T08:56:06;3.08;;;2.10;;
42616;SDS011;28250;52.320;0.360;2024-01-30T08:58:32;4.75;;;2.60;;
42616;SDS011;28250;52.320;0.360;2024-01-30T09:00:58;3.97;;;2.50;;
42616;SDS011;28250;52.320;0.360;2024-01-30T09:03:25;3.22;;;1.80;;
42616;SDS011;28250;52.320;0.360;2024-01-30T09:05:51;3.92;;;2.35;;
42616;SDS011;28250;52.320;0.360;2024-01-30T09:08:17;10.15;;;2.28;;
42616;SDS011;28250;52.320;0.360;2024-01-30T09:10:43;5.57;;;2.55;;
42616;SDS011;28250;52.320;0.360;2024-01-30T09:13:09;4.55;;;2.50;;
42616;SDS011;28250;52.320;0.360;2024-01-30T09:15:35;2.15;;;1.80;;
42616;SDS011;28250;52.320;0.360;2024-01-30T09:18:02;3.33;;;2.50;;
42616;SDS011;28250;52.320;0.360;2024-01-30T09:20:28;3.72;;;2.33;;
42616;SDS011;28250;52.320;0.360;2024-01-30T09:22:54;6.53;;;2.33;;
42616;SDS011;28250;52.320;0.360;2024-01-30T09:25:20;3.80;;;2.35;;
42616;SDS011;28250;52.320;0.360;2024-01-30T09:27:46;5.40;;;3.15;;
42616;SDS011;28250;52.320;0.360;2024-01-30T09:30:12;5.95;;;2.45;;
42616;SDS011;28250;52.320;0.360;2024-01-30T09:32:39;4.97;;;2.50;;
42616;SDS011;28250;52.320;0.360;2024-01-30T09:35:06;4.38;;;2.13;;
42616;SDS011;28250;52.320;0.360;2024-01-30T09:37:32;3.45;;;1.85;;
42616;SDS011;28250;52.320;0.360;2024-01-30T09:39:58;2.53;;;1.90;;
42616;SDS011;28250;52.320;0.360;2024-01-30T09:45:01;3.00;;;1.63;;
42616;SDS011;28250;52.320;0.360;2024-01-30T09:47:31;2.60;;;1.60;;
42616;SDS011;28250;52.320;0.360;2024-01-30T09:50:10;3.85;;;1.55;;
42616;SDS011;28250;52.320;0.360;2024-01-30T09:52:38;3.17;;;1.90;;
42616;SDS011;28250;52.320;0.360;2024-01-30T09:55:05;3.65;;;1.50;;
42616;SDS011;28250;52.320;0.360;2024-01-30T10:00:00;7.32;;;1.65;;
42616;SDS011;28250;52.320;0.360;2024-01-30T10:02:26;2.35;;;1.50;;
42616;SDS011;28250;52.320;0.360;2024-01-30T10:04:52;2.92;;;1.48;;
42616;SDS011;28250;52.320;0.360;2024-01-30T10:07:18;3.42;;;1.70;;
42616;SDS011;28250;52.320;0.360;2024-01-30T10:09:45;3.33;;;1.40;;
42616;SDS011;28250;52.320;0.360;2024-01-30T10:12:12;3.05;;;1.30;;
42616;SDS011;28250;52.320;0.360;2024-01-30T10:14:39;4.10;;;1.58;;
42616;SDS011;28250;52.320;0.360;2024-01-30T10:17:11;3.58;;;1.33;;
42616;SDS011;28250;52.320;0.360;2024-01-30T10:19:48;2.58;;;1.20;;
42616;SDS011;28250;52.320;0.360;2024-01-30T10:22:24;3.13;;;1.70;;
42616;SDS011;28250;52.320;0.360;2024-01-30T10:24:54;3.30;;;1.30;;
42616;SDS011;28250;52.320;0.360;2024-01-30T10:27:24;6.35;;;1.70;;
42616;SDS011;28250;52.320;0.360;2024-01-30T10:29:52;6.05;;;1.52;;
42616;SDS011;28250;52.320;0.360;2024-01-30T10:32:19;5.22;;;1.55;;
42616;SDS011;28250;52.320;0.360;2024-01-30T10:37:12;2.58;;;1.23;;
42616;SDS011;28250;52.320;0.360;2024-01-30T10:39:41;3.83;;;1.30;;
42616;SDS011;28250;52.320;0.360;2024-01-30T10:42:12;3.47;;;1.40;;
42616;SDS011;28250;52.320;0.360;2024-01-30T10:47:18;2.35;;;1.23;;
42616;SDS011;28250;52.320;0.360;2024-01-30T10:49:53;6.03;;;1.92;;
42616;SDS011;28250;52.320;0.360;2024-01-30T10:54:50;5.28;;;2.03;;
42616;SDS011;28250;52.320;0.360;2024-01-30T10:57:17;3.85;;;1.52;;
42616;SDS011;28250;52.320;0.360;2024-01-30T10:59:44;4.88;;;1.92;;
42616;SDS011;28250;52.320;0.360;2024-01-30T11:02:12;5.50;;;1.88;;
42616;SDS011;28250;52.320;0.360;2024-01-30T11:04:43;6.53;;;1.85;;
42616;SDS011;28250;52.320;0.360;2024-01-30T11:07:15;7.20;;;1.98;;
42616;SDS011;28250;52.320;0.360;2024-01-30T11:12:28;6.07;;;2.20;;
42616;SDS011;28250;52.320;0.360;2024-01-30T11:15:14;7.47;;;2.67;;
42616;SDS011;28250;52.320;0.360;2024-01-30T11:17:50;4.32;;;2.58;;
42616;SDS011;28250;52.320;0.360;2024-01-30T11:20:30;4.65;;;2.35;;
42616;SDS011;28250;52.320;0.360;2024-01-30T11:22:57;6.90;;;3.13;;
42616;SDS011;28250;52.320;0.360;2024-01-30T11:25:25;7.97;;;2.70;;
42616;SDS011;28250;52.320;0.360;2024-01-30T11:27:52;7.78;;;3.10;;
42616;SDS011;28250;52.320;0.360;2024-01-30T11:30:24;5.65;;;3.45;;
42616;SDS011;28250;52.320;0.360;2024-01-30T11:33:03;6.78;;;3.30;;
42616;SDS011;28250;52.320;0.360;2024-01-30T11:35:40;6.57;;;3.92;;
42616;SDS011;28250;52.320;0.360;2024-01-30T11:38:08;6.45;;;3.65;;
42616;SDS011;28250;52.320;0.360;2024-01-30T11:40:36;8.30;;;3.97;;
42616;SDS011;28250;52.320;0.360;2024-01-30T11:43:05;10.68;;;4.28;;
42616;SDS011;28250;52.320;0.360;2024-01-30T11:45:33;9.02;;;3.83;;
42616;SDS011;28250;52.320;0.360;2024-01-30T11:48:00;6.22;;;3.78;;
42616;SDS011;28250;52.320;0.360;2024-01-30T11:50:30;9.70;;;3.92;;
42616;SDS011;28250;52.320;0.360;2024-01-30T11:52:58;17.45;;;7.32;;
42616;SDS011;28250;52.320;0.360;2024-01-30T11:55:31;7.93;;;4.90;;
42616;SDS011;28250;52.320;0.360;2024-01-30T11:57:57;8.18;;;5.03;;
42616;SDS011;28250;52.320;0.360;2024-01-30T12:00:24;6.75;;;4.20;;
42616;SDS011;28250;52.320;0.360;2024-01-30T12:02:51;6.53;;;4.53;;
42616;SDS011;28250;52.320;0.360;2024-01-30T12:05:21;6.97;;;4.45;;
42616;SDS011;28250;52.320;0.360;2024-01-30T12:07:51;7.10;;;4.35;;
42616;SDS011;28250;52.320;0.360;2024-01-30T12:10:17;8.10;;;5.00;;
42616;SDS011;28250;52.320;0.360;2024-01-30T12:12:50;7.80;;;4.80;;
42616;SDS011;28250;52.320;0.360;2024-01-30T12:15:17;6.60;;;4.68;;
42616;SDS011;28250;52.320;0.360;2024-01-30T12:17:46;9.23;;;5.20;;
42616;SDS011;28250;52.320;0.360;2024-01-30T12:20:13;8.20;;;5.22;;
42616;SDS011;28250;52.320;0.360;2024-01-30T12:22:44;7.97;;;4.90;;
42616;SDS011;28250;52.320;0.360;2024-01-30T12:25:20;6.85;;;4.55;;
42616;SDS011;28250;52.320;0.360;2024-01-30T12:27:52;10.48;;;5.05;;
42616;SDS011;28250;52.320;0.360;2024-01-30T12:30:20;8.40;;;5.53;;
42616;SDS011;28250;52.320;0.360;2024-01-30T12:32:46;7.40;;;4.57;;
42616;SDS011;28250;52.320;0.360;2024-01-30T12:35:16;5.00;;;3.92;;
42616;SDS011;28250;52.320;0.360;2024-01-30T12:37:44;8.02;;;3.80;;
42616;SDS011;28250;52.320;0.360;2024-01-30T12:40:12;5.47;;;3.78;;
42616;SDS011;28250;52.320;0.360;2024-01-30T12:42:40;4.93;;;3.85;;
42616;SDS011;28250;52.320;0.360;2024-01-30T12:45:11;5.70;;;3.33;;
42616;SDS011;28250;52.320;0.360;2024-01-30T12:47:39;4.40;;;3.20;;
42616;SDS011;28250;52.320;0.360;2024-01-30T12:50:06;7.47;;;4.00;;
42616;SDS011;28250;52.320;0.360;2024-01-30T12:52:32;4.38;;;3.70;;
42616;SDS011;28250;52.320;0.360;2024-01-30T12:54:58;4.22;;;3.40;;
42616;SDS011;28250;52.320;0.360;2024-01-30T12:57:24;4.90;;;4.22;;
42616;SDS011;28250;52.320;0.360;2024-01-30T12:59:51;6.93;;;4.50;;
42616;SDS011;28250;52.320;0.360;2024-01-30T13:02:17;7.03;;;3.63;;
42616;SDS011;28250;52.320;0.360;2024-01-30T13:04:43;5.35;;;3.72;;
42616;SDS011;28250;52.320;0.360;2024-01-30T13:07:09;12.70;;;3.90;;
42616;SDS011;28250;52.320;0.360;2024-01-30T13:09:35;4.07;;;2.58;;
42616;SDS011;28250;52.320;0.360;2024-01-30T13:12:02;3.83;;;2.65;;
42616;SDS011;28250;52.320;0.360;2024-01-30T13:14:28;6.65;;;3.33;;
42616;SDS011;28250;52.320;0.360;2024-01-30T13:16:54;5.25;;;3.83;;
42616;SDS011;28250;52.320;0.360;2024-01-30T13:19:20;8.15;;;4.45;;
42616;SDS011;28250;52.320;0.360;2024-01-30T13:21:46;9.82;;;4.07;;
42616;SDS011;28250;52.320;0.360;2024-01-30T13:24:13;5.05;;;3.70;;
42616;SDS011;28250;52.320;0.360;2024-01-30T13:26:39;5.85;;;3.70;;
42616;SDS011;28250;52.320;0.360;2024-01-30T13:29:07;9.68;;;4.90;;
42616;SDS011;28250;52.320;0.360;2024-01-30T13:31:33;6.50;;;4.07;;
42616;SDS011;28250;52.320;0.360;2024-01-30T13:34:00;3.72;;;3.00;;
42616;SDS011;28250;52.320;0.360;2024-01-30T13:36:26;3.92;;;3.00;;
42616;SDS011;28250;52.320;0.360;2024-01-30T13:38:52;3.22;;;2.70;;
42616;SDS011;28250;52.320;0.360;2024-01-30T13:41:18;6.10;;;2.97;;
42616;SDS011;28250;52.320;0.360;2024-01-30T13:43:46;6.05;;;3.08;;
42616;SDS011;28250;52.320;0.360;2024-01-30T13:46:12;4.63;;;3.00;;
42616;SDS011;28250;52.320;0.360;2024-01-30T13:48:38;7.93;;;3.45;;
42616;SDS011;28250;52.320;0.360;2024-01-30T13:51:04;4.07;;;2.85;;
42616;SDS011;28250;52.320;0.360;2024-01-30T13:53:30;4.60;;;3.00;;
42616;SDS011;28250;52.320;0.360;2024-01-30T13:55:57;3.10;;;2.70;;
42616;SDS011;28250;52.320;0.360;2024-01-30T13:58:23;5.25;;;3.20;;
42616;SDS011;28250;52.320;0.360;2024-01-30T14:00:49;5.68;;;3.15;;
42616;SDS011;28250;52.320;0.360;2024-01-30T14:03:15;4.00;;;3.22;;
42616;SDS011;28250;52.320;0.360;2024-01-30T14:05:41;4.03;;;3.30;;
42616;SDS011;28250;52.320;0.360;2024-01-30T14:08:07;3.28;;;2.72;;
42616;SDS011;28250;52.320;0.360;2024-01-30T14:10:34;6.90;;;3.23;;
42616;SDS011;28250;52.320;0.360;2024-01-30T14:13:00;2.33;;;2.13;;
42616;SDS011;28250;52.320;0.360;2024-01-30T14:15:26;2.85;;;1.95;;
42616;SDS011;28250;52.320;0.360;2024-01-30T14:17:52;1.70;;;1.60;;
42616;SDS011;28250;52.320;0.360;2024-01-30T14:20:18;2.28;;;1.90;;
42616;SDS011;28250;52.320;0.360;2024-01-30T14:22:45;3.58;;;1.77;;
42616;SDS011;28250;52.320;0.360;2024-01-30T14:25:11;2.85;;;1.65;;
42616;SDS011;28250;52.320;0.360;2024-01-30T14:27:37;1.77;;;1.20;;
42616;SDS011;28250;52.320;0.360;2024-01-30T14:30:03;3.13;;;1.50;;
42616;SDS011;28250;52.320;0.360;2024-01-30T14:32:31;2.00;;;1.52;;
42616;SDS011;28250;52.320;0.360;2024-01-30T14:34:58;3.00;;;2.07;;
42616;SDS011;28250;52.320;0.360;2024-01-30T14:37:24;5.28;;;2.28;;
42616;SDS011;28250;52.320;0.360;2024-01-30T14:39:50;1.92;;;1.75;;
42616;SDS011;28250;52.320;0.360;2024-01-30T14:42:16;3.80;;;1.77;;
42616;SDS011;28250;52.320;0.360;2024-01-30T14:44:42;3.80;;;1.80;;
42616;SDS011;28250;52.320;0.360;2024-01-30T14:47:08;3.72;;;1.90;;
42616;SDS011;28250;52.320;0.360;2024-01-30T14:49:35;3.92;;;2.60;;
42616;SDS011;28250;52.320;0.360;2024-01-30T14:52:01;2.85;;;2.42;;
42616;SDS011;28250;52.320;0.360;2024-01-30T14:54:29;3.13;;;2.83;;
42616;SDS011;28250;52.320;0.360;2024-01-30T14:56:55;4.93;;;2.50;;
42616;SDS011;28250;52.320;0.360;2024-01-30T14:59:22;3.43;;;2.60;;
42616;SDS011;28250;52.320;0.360;2024-01-30T15:01:48;5.80;;;2.65;;
42616;SDS011;28250;52.320;0.360;2024-01-30T15:04:14;5.30;;;2.70;;